sensor_id;sensor_type;location;lat;lon;timestamp;pressure;altitude;pressure_sealevel;temperature;humidity
15674;BME280;7937;48.090;16.212;2023-11-19T00:00:54;98230.72;;;-0.67;100.00
15674;BME280;7937;48.090;16.212;2023-11-19T00:03:56;98227.09;;;-0.66;100.00
15674;BME280;7937;48.090;16.212;2023-11-19T00:06:58;98228.59;;;-0.63;100.00
15674;BME280;7937;48.090;16.212;2023-11-19T00:10:07;98224.66;;;-0.59;100.00
15674;BME280;7937;48.090;16.212;2023-11-19T00:13:11;98230.41;;;-0.56;100.00
15674;BME280;7937;48.090;16.212;2023-11-19T00:16:14;98219.81;;;-0.54;100.00
15674;BME280;7937;48.090;16.212;2023-11-19T00:19:16;98214.25;;;-0.51;100.00
15674;BME280;7937;48.090;16.212;2023-11-19T00:22:18;98212.97;;;-0.47;100.00
15674;BME280;7937;48.090;16.212;2023-11-19T00:25:23;98202.31;;;-0.45;100.00
15674;BME280;7937;48.090;16.212;2023-11-19T00:28:25;98204.47;;;-0.41;100.00
15674;BME280;7937;48.090;16.212;2023-11-19T00:31:27;98205.78;;;-0.37;100.00
15674;BME280;7937;48.090;16.212;2023-11-19T00:34:29;98219.38;;;-0.33;100.00
15674;BME280;7937;48.090;16.212;2023-11-19T00:37:31;98209.56;;;-0.31;100.00
15674;BME280;7937;48.090;16.212;2023-11-19T00:40:33;98197.28;;;-0.31;100.00
15674;BME280;7937;48.090;16.212;2023-11-19T00:43:36;98190.41;;;-0.32;100.00
15674;BME280;7937;48.090;16.212;2023-11-19T00:46:38;98191.91;;;-0.29;100.00
15674;BME280;7937;48.090;16.212;2023-11-19T00:49:41;98194.19;;;-0.26;100.00
15674;BME280;7937;48.090;16.212;2023-11-19T00:52:44;98191.25;;;-0.23;100.00
15674;BME280;7937;48.090;16.212;2023-11-19T00:55:46;98180.63;;;-0.21;100.00
15674;BME280;7937;48.090;16.212;2023-11-19T00:58:49;98184.56;;;-0.17;100.00
15674;BME280;7937;48.090;16.212;2023-11-19T01:01:51;98179.31;;;-0.17;100.00
15674;BME280;7937;48.090;16.212;2023-11-19T01:04:53;98172.94;;;-0.15;100.00
15674;BME280;7937;48.090;16.212;2023-11-19T01:07:55;98174.41;;;-0.12;100.00
15674;BME280;7937;48.090;16.212;2023-11-19T01:10:57;98166.06;;;-0.16;100.00
15674;BME280;7937;48.090;16.212;2023-11-19T01:14:00;98196.34;;;-0.05;100.00
15674;BME280;7937;48.090;16.212;2023-11-19T01:17:03;98176.25;;;-0.05;100.00
15674;BME280;7937;48.090;16.212;2023-11-19T01:20:07;98175.91;;;-0.02;100.00
15674;BME280;7937;48.090;16.212;2023-11-19T01:23:09;98160.53;;;0.04;100.00
15674;BME280;7937;48.090;16.212;2023-11-19T01:26:12;98167.06;;;0.08;100.00
15674;BME280;7937;48.090;16.212;2023-11-19T01:29:15;98161.53;;;0.11;100.00
15674;BME280;7937;48.090;16.212;2023-11-19T01:32:17;98126.16;;;-0.10;100.00
15674;BME280;7937;48.090;16.212;2023-11-19T01:35:22;98149.88;;;0.13;100.00
15674;BME280;7937;48.090;16.212;2023-11-19T01:38:28;98152.69;;;0.20;100.00
15674;BME280;7937;48.090;16.212;2023-11-19T01:41:34;98128.28;;;0.11;100.00
15674;BME280;7937;48.090;16.212;2023-11-19T01:44:38;98141.84;;;0.23;100.00
15674;BME280;7937;48.090;16.212;2023-11-19T01:47:40;98142.66;;;0.23;100.00
15674;BME280;7937;48.090;16.212;2023-11-19T01:50:42;98144.16;;;0.26;100.00
15674;BME280;7937;48.090;16.212;2023-11-19T01:53:44;98133.81;;;0.24;100.00
15674;BME280;7937;48.090;16.212;2023-11-19T01:56:47;98125.16;;;0.32;100.00
15674;BME280;7937;48.090;16.212;2023-11-19T01:59:52;98115.97;;;0.36;100.00
15674;BME280;7937;48.090;16.212;2023-11-19T02:02:55;98112.53;;;0.36;100.00
15674;BME280;7937;48.090;16.212;2023-11-19T02:05:58;98100.44;;;0.35;100.00
15674;BME280;7937;48.090;16.212;2023-11-19T02:09:01;98093.53;;;0.34;100.00
15674;BME280;7937;48.090;16.212;2023-11-19T02:12:04;98093.72;;;0.32;100.00
15674;BME280;7937;48.090;16.212;2023-11-19T02:15:06;98085.66;;;0.34;100.00
15674;BME280;7937;48.090;16.212;2023-11-19T02:18:19;98088.16;;;0.35;100.00
15674;BME280;7937;48.090;16.212;2023-11-19T02:21:21;98066.69;;;0.23;100.00
15674;BME280;7937;48.090;16.212;2023-11-19T02:24:26;98059.63;;;0.32;100.00
15674;BME280;7937;48.090;16.212;2023-11-19T02:27:44;98049.16;;;0.32;100.00
15674;BME280;7937;48.090;16.212;2023-11-19T02:30:47;98042.13;;;0.33;100.00
15674;BME280;7937;48.090;16.212;2023-11-19T02:33:50;98005.31;;;0.18;100.00
15674;BME280;7937;48.090;16.212;2023-11-19T02:36:52;98029.50;;;0.28;100.00
15674;BME280;7937;48.090;16.212;2023-11-19T02:39:55;98030.31;;;0.29;100.00
15674;BME280;7937;48.090;16.212;2023-11-19T02:42:58;98030.31;;;0.29;100.00
15674;BME280;7937;48.090;16.212;2023-11-19T02:46:03;98027.06;;;0.27;100.00
15674;BME280;7937;48.090;16.212;2023-11-19T02:49:12;98013.47;;;0.23;100.00
15674;BME280;7937;48.090;16.212;2023-11-19T02:52:14;98018.91;;;0.21;100.00
15674;BME280;7937;48.090;16.212;2023-11-19T02:55:16;98007.44;;;0.22;100.00
15674;BME280;7937;48.090;16.212;2023-11-19T02:58:19;98001.19;;;0.23;100.00
15674;BME280;7937;48.090;16.212;2023-11-19T03:01:25;98001.06;;;0.25;100.00
15674;BME280;7937;48.090;16.212;2023-11-19T03:04:35;97988.59;;;0.27;100.00
15674;BME280;7937;48.090;16.212;2023-11-19T03:07:38;97976.47;;;0.26;100.00
15674;BME280;7937;48.090;16.212;2023-11-19T03:10:40;97972.22;;;0.25;100.00
15674;BME280;7937;48.090;16.212;2023-11-19T03:13:42;97961.91;;;0.23;100.00
15674;BME280;7937;48.090;16.212;2023-11-19T03:16:47;97954.22;;;0.22;100.00
15674;BME280;7937;48.090;16.212;2023-11-19T03:19:49;97944.41;;;0.16;100.00
15674;BME280;7937;48.090;16.212;2023-11-19T03:22:51;97914.50;;;0.02;100.00
15674;BME280;7937;48.090;16.212;2023-11-19T03:25:54;97936.69;;;0.22;100.00
15674;BME280;7937;48.090;16.212;2023-11-19T03:28:57;97938.97;;;0.25;100.00
15674;BME280;7937;48.090;16.212;2023-11-19T03:31:59;97920.34;;;0.20;100.00
15674;BME280;7937;48.090;16.212;2023-11-19T03:35:01;97937.69;;;0.21;100.00
15674;BME280;7937;48.090;16.212;2023-11-19T03:38:06;97934.06;;;0.22;100.00
15674;BME280;7937;48.090;16.212;2023-11-19T03:41:14;97936.69;;;0.22;100.00
15674;BME280;7937;48.090;16.212;2023-11-19T03:44:17;97913.00;;;0.08;100.00
15674;BME280;7937;48.090;16.212;2023-11-19T03:47:21;97930.31;;;0.25;100.00
15674;BME280;7937;48.090;16.212;2023-11-19T03:50:23;97886.69;;;0.01;100.00
15674;BME280;7937;48.090;16.212;2023-11-19T03:53:26;97906.88;;;0.23;100.00
15674;BME280;7937;48.090;16.212;2023-11-19T03:56:28;97895.47;;;0.16;100.00
15674;BME280;7937;48.090;16.212;2023-11-19T03:59:31;97902.16;;;0.19;100.00
15674;BME280;7937;48.090;16.212;2023-11-19T04:02:35;97892.66;;;0.18;100.00
15674;BME280;7937;48.090;16.212;2023-11-19T04:05:37;97874.53;;;0.08;100.00
15674;BME280;7937;48.090;16.212;2023-11-19T04:08:39;97890.84;;;0.18;100.00
15674;BME280;7937;48.090;16.212;2023-11-19T04:11:41;97882.84;;;0.20;100.00
15674;BME280;7937;48.090;16.212;2023-11-19T04:14:43;97869.75;;;0.20;100.00
15674;BME280;7937;48.090;16.212;2023-11-19T04:17:45;97855.81;;;0.19;100.00
15674;BME280;7937;48.090;16.212;2023-11-19T04:20:48;97855.66;;;0.21;100.00
15674;BME280;7937;48.090;16.212;2023-11-19T04:23:50;97830.31;;;0.13;100.00
15674;BME280;7937;48.090;16.212;2023-11-19T04:26:52;97851.88;;;0.23;100.00
15674;BME280;7937;48.090;16.212;2023-11-19T04:29:54;97852.84;;;0.22;100.00
15674;BME280;7937;48.090;16.212;2023-11-19T04:32:58;97836.03;;;0.17;100.00
15674;BME280;7937;48.090;16.212;2023-11-19T04:36:00;97843.38;;;0.21;100.00
15674;BME280;7937;48.090;16.212;2023-11-19T04:39:03;97845.63;;;0.24;100.00
15674;BME280;7937;48.090;16.212;2023-11-19T04:42:12;97815.59;;;0.12;100.00
15674;BME280;7937;48.090;16.212;2023-11-19T04:45:14;97838.75;;;0.23;100.00
15674;BME280;7937;48.090;16.212;2023-11-19T04:48:18;97836.16;;;0.23;100.00
15674;BME280;7937;48.090;16.212;2023-11-19T04:51:20;97832.72;;;0.23;100.00
15674;BME280;7937;48.090;16.212;2023-11-19T04:54:24;97828.13;;;0.25;100.00
15674;BME280;7937;48.090;16.212;2023-11-19T04:57:27;97800.22;;;0.09;100.00
15674;BME280;7937;48.090;16.212;2023-11-19T05:00:29;97805.72;;;0.22;100.00
15674;BME280;7937;48.090;16.212;2023-11-19T05:03:32;97811.56;;;0.24;100.00
15674;BME280;7937;48.090;16.212;2023-11-19T05:06:34;97808.44;;;0.29;100.00
15674;BME280;7937;48.090;16.212;2023-11-19T05:09:37;97807.47;;;0.30;100.00
15674;BME280;7937;48.090;16.212;2023-11-19T05:12:39;97809.09;;;0.31;100.00
15674;BME280;7937;48.090;16.212;2023-11-19T05:15:41;97807.47;;;0.30;100.00
15674;BME280;7937;48.090;16.212;2023-11-19T05:18:43;97803.03;;;0.31;100.00
15674;BME280;7937;48.090;16.212;2023-11-19T05:21:45;97800.25;;;0.32;100.00
15674;BME280;7937;48.090;16.212;2023-11-19T05:24:48;97794.19;;;0.32;100.00
15674;BME280;7937;48.090;16.212;2023-11-19T05:27:51;97786.97;;;0.34;100.00
15674;BME280;7937;48.090;16.212;2023-11-19T05:30:53;97791.22;;;0.35;100.00
15674;BME280;7937;48.090;16.212;2023-11-19T05:33:55;97791.22;;;0.35;100.00
15674;BME280;7937;48.090;16.212;2023-11-19T05:36:57;97787.44;;;0.37;100.00
15674;BME280;7937;48.090;16.212;2023-11-19T05:39:59;97782.81;;;0.39;100.00
15674;BME280;7937;48.090;16.212;2023-11-19T05:43:02;97759.50;;;0.30;100.00
15674;BME280;7937;48.090;16.212;2023-11-19T05:46:04;97777.44;;;0.41;100.00
15674;BME280;7937;48.090;16.212;2023-11-19T05:49:20;97751.78;;;0.28;100.00
15674;BME280;7937;48.090;16.212;2023-11-19T05:52:23;97762.50;;;0.41;100.00
15674;BME280;7937;48.090;16.212;2023-11-19T05:55:25;97718.34;;;0.15;100.00
15674;BME280;7937;48.090;16.212;2023-11-19T05:58:29;97723.69;;;0.22;100.00
15674;BME280;7937;48.090;16.212;2023-11-19T06:01:34;97748.22;;;0.44;100.00
15674;BME280;7937;48.090;16.212;2023-11-19T06:04:36;97759.38;;;0.46;100.00
15674;BME280;7937;48.090;16.212;2023-11-19T06:07:38;97748.69;;;0.47;100.00
15674;BME280;7937;48.090;16.212;2023-11-19T06:10:42;97760.81;;;0.48;100.00
15674;BME280;7937;48.090;16.212;2023-11-19T06:13:44;97757.22;;;0.49;100.00
15674;BME280;7937;48.090;16.212;2023-11-19T06:16:46;97754.22;;;0.52;100.00
15674;BME280;7937;48.090;16.212;2023-11-19T06:19:49;97765.38;;;0.55;100.00
15674;BME280;7937;48.090;16.212;2023-11-19T06:22:51;97751.91;;;0.58;100.00
15674;BME280;7937;48.090;16.212;2023-11-19T06:25:54;97750.91;;;0.59;100.00
15674;BME280;7937;48.090;16.212;2023-11-19T06:28:58;97755.19;;;0.60;100.00
15674;BME280;7937;48.090;16.212;2023-11-19T06:32:00;97744.69;;;0.60;100.00
15674;BME280;7937;48.090;16.212;2023-11-19T06:35:15;97735.00;;;0.60;100.00
15674;BME280;7937;48.090;16.212;2023-11-19T06:38:17;97738.25;;;0.62;100.00
15674;BME280;7937;48.090;16.212;2023-11-19T06:41:19;97738.25;;;0.62;100.00
15674;BME280;7937;48.090;16.212;2023-11-19T06:44:21;97729.41;;;0.63;100.00
15674;BME280;7937;48.090;16.212;2023-11-19T06:47:27;97710.78;;;0.58;100.00
15674;BME280;7937;48.090;16.212;2023-11-19T06:50:30;97722.63;;;0.69;100.00
15674;BME280;7937;48.090;16.212;2023-11-19T06:53:32;97726.72;;;0.71;100.00
15674;BME280;7937;48.090;16.212;2023-11-19T06:56:34;97718.31;;;0.76;100.00
15674;BME280;7937;48.090;16.212;2023-11-19T06:59:36;97730.44;;;0.77;100.00
15674;BME280;7937;48.090;16.212;2023-11-19T07:02:38;97726.28;;;0.83;100.00
15674;BME280;7937;48.090;16.212;2023-11-19T07:05:41;97712.47;;;0.89;100.00
15674;BME280;7937;48.090;16.212;2023-11-19T07:08:43;97713.72;;;0.93;100.00
15674;BME280;7937;48.090;16.212;2023-11-19T07:11:49;97707.13;;;0.97;100.00
15674;BME280;7937;48.090;16.212;2023-11-19T07:14:54;97678.47;;;0.95;100.00
15674;BME280;7937;48.090;16.212;2023-11-19T07:17:56;97710.75;;;1.11;100.00
15674;BME280;7937;48.090;16.212;2023-11-19T07:21:04;97701.59;;;1.21;100.00
15674;BME280;7937;48.090;16.212;2023-11-19T07:24:06;97688.28;;;1.23;100.00
15674;BME280;7937;48.090;16.212;2023-11-19T07:27:09;97697.44;;;1.27;100.00
15674;BME280;7937;48.090;16.212;2023-11-19T07:30:11;97697.69;;;1.32;100.00
15674;BME280;7937;48.090;16.212;2023-11-19T07:33:14;97685.66;;;1.38;100.00
15674;BME280;7937;48.090;16.212;2023-11-19T07:36:17;97679.69;;;1.44;100.00
15674;BME280;7937;48.090;16.212;2023-11-19T07:39:20;97644.84;;;1.35;100.00
15674;BME280;7937;48.090;16.212;2023-11-19T07:42:25;97661.66;;;1.55;100.00
15674;BME280;7937;48.090;16.212;2023-11-19T07:45:27;97670.59;;;1.61;100.00
15674;BME280;7937;48.090;16.212;2023-11-19T07:48:29;97659.34;;;1.67;100.00
15674;BME280;7937;48.090;16.212;2023-11-19T07:51:31;97657.81;;;1.73;100.00
15674;BME280;7937;48.090;16.212;2023-11-19T07:54:33;97661.50;;;1.78;100.00
15674;BME280;7937;48.090;16.212;2023-11-19T07:57:35;97660.75;;;1.85;100.00
15674;BME280;7937;48.090;16.212;2023-11-19T08:00:38;97660.19;;;1.89;100.00
15674;BME280;7937;48.090;16.212;2023-11-19T08:03:40;97664.50;;;1.97;100.00
15674;BME280;7937;48.090;16.212;2023-11-19T08:06:58;97659.31;;;2.03;100.00
15674;BME280;7937;48.090;16.212;2023-11-19T08:10:00;97666.25;;;2.11;100.00
15674;BME280;7937;48.090;16.212;2023-11-19T08:13:02;97672.19;;;2.20;100.00
15674;BME280;7937;48.090;16.212;2023-11-19T08:16:06;97676.53;;;2.27;100.00
15674;BME280;7937;48.090;16.212;2023-11-19T08:19:08;97667.06;;;2.33;100.00
15674;BME280;7937;48.090;16.212;2023-11-19T08:22:10;97666.88;;;2.35;100.00
15674;BME280;7937;48.090;16.212;2023-11-19T08:25:12;97666.50;;;2.38;100.00
15674;BME280;7937;48.090;16.212;2023-11-19T08:28:15;97657.41;;;2.40;100.00
15674;BME280;7937;48.090;16.212;2023-11-19T08:31:17;97646.13;;;2.46;100.00
15674;BME280;7937;48.090;16.212;2023-11-19T08:34:19;97651.88;;;2.56;100.00
15674;BME280;7937;48.090;16.212;2023-11-19T08:37:22;97664.28;;;2.69;100.00
15674;BME280;7937;48.090;16.212;2023-11-19T08:40:27;97661.97;;;2.81;100.00
15674;BME280;7937;48.090;16.212;2023-11-19T08:43:31;97657.78;;;2.93;100.00
15674;BME280;7937;48.090;16.212;2023-11-19T08:46:33;97657.81;;;3.00;100.00
15674;BME280;7937;48.090;16.212;2023-11-19T08:49:35;97641.88;;;3.08;100.00
15674;BME280;7937;48.090;16.212;2023-11-19T08:52:38;97651.59;;;3.14;100.00
15674;BME280;7937;48.090;16.212;2023-11-19T08:55:40;97646.38;;;3.21;100.00
15674;BME280;7937;48.090;16.212;2023-11-19T08:58:42;97646.03;;;3.30;100.00
15674;BME280;7937;48.090;16.212;2023-11-19T09:01:44;97646.66;;;3.39;100.00
15674;BME280;7937;48.090;16.212;2023-11-19T09:04:46;97656.44;;;3.52;100.00
15674;BME280;7937;48.090;16.212;2023-11-19T09:07:50;97664.97;;;3.60;100.00
15674;BME280;7937;48.090;16.212;2023-11-19T09:10:53;97648.38;;;3.67;100.00
15674;BME280;7937;48.090;16.212;2023-11-19T09:13:55;97642.94;;;3.75;100.00
15674;BME280;7937;48.090;16.212;2023-11-19T09:16:57;97639.91;;;3.91;100.00
15674;BME280;7937;48.090;16.212;2023-11-19T09:19:59;97644.00;;;4.07;100.00
15674;BME280;7937;48.090;16.212;2023-11-19T09:23:02;97632.06;;;4.24;100.00
15674;BME280;7937;48.090;16.212;2023-11-19T09:26:08;97627.78;;;4.36;100.00
15674;BME280;7937;48.090;16.212;2023-11-19T09:29:11;97627.16;;;4.48;100.00
15674;BME280;7937;48.090;16.212;2023-11-19T09:32:13;97614.78;;;4.55;100.00
15674;BME280;7937;48.090;16.212;2023-11-19T09:35:15;97613.97;;;4.61;100.00
15674;BME280;7937;48.090;16.212;2023-11-19T09:38:20;97605.66;;;4.64;100.00
15674;BME280;7937;48.090;16.212;2023-11-19T09:41:23;97586.56;;;4.62;100.00
15674;BME280;7937;48.090;16.212;2023-11-19T09:44:27;97585.13;;;4.66;100.00
15674;BME280;7937;48.090;16.212;2023-11-19T09:47:30;97586.94;;;4.72;100.00
15674;BME280;7937;48.090;16.212;2023-11-19T09:50:32;97579.84;;;4.66;100.00
15674;BME280;7937;48.090;16.212;2023-11-19T09:53:35;97567.66;;;4.72;100.00
15674;BME280;7937;48.090;16.212;2023-11-19T09:56:39;97584.31;;;4.72;100.00
15674;BME280;7937;48.090;16.212;2023-11-19T09:59:42;97586.75;;;4.74;100.00
15674;BME280;7937;48.090;16.212;2023-11-19T10:02:44;97554.13;;;4.55;100.00
15674;BME280;7937;48.090;16.212;2023-11-19T10:05:49;97575.59;;;4.72;100.00
15674;BME280;7937;48.090;16.212;2023-11-19T10:08:51;97578.63;;;4.75;100.00
15674;BME280;7937;48.090;16.212;2023-11-19T10:11:53;97583.28;;;4.80;100.00
15674;BME280;7937;48.090;16.212;2023-11-19T10:14:57;97578.41;;;4.83;100.00
15674;BME280;7937;48.090;16.212;2023-11-19T10:18:00;97554.50;;;4.65;100.00
15674;BME280;7937;48.090;16.212;2023-11-19T10:21:05;97572.31;;;4.76;100.00
15674;BME280;7937;48.090;16.212;2023-11-19T10:24:08;97565.84;;;4.79;100.00
15674;BME280;7937;48.090;16.212;2023-11-19T10:27:10;97545.13;;;4.76;100.00
15674;BME280;7937;48.090;16.212;2023-11-19T10:30:13;97535.81;;;4.73;100.00
15674;BME280;7937;48.090;16.212;2023-11-19T10:33:15;97563.75;;;4.94;100.00
15674;BME280;7937;48.090;16.212;2023-11-19T10:36:19;97549.72;;;5.00;100.00
15674;BME280;7937;48.090;16.212;2023-11-19T10:39:51;97510.81;;;4.76;100.00
15674;BME280;7937;48.090;16.212;2023-11-19T10:43:02;97538.75;;;4.97;100.00
15674;BME280;7937;48.090;16.212;2023-11-19T10:46:11;97538.75;;;4.97;100.00
15674;BME280;7937;48.090;16.212;2023-11-19T10:49:14;97534.50;;;4.96;100.00
15674;BME280;7937;48.090;16.212;2023-11-19T10:52:18;97526.97;;;4.99;100.00
15674;BME280;7937;48.090;16.212;2023-11-19T10:55:27;97496.41;;;4.72;100.00
15674;BME280;7937;48.090;16.212;2023-11-19T10:58:33;97524.56;;;4.91;100.00
15674;BME280;7937;48.090;16.212;2023-11-19T11:01:44;97518.09;;;4.87;100.00
15674;BME280;7937;48.090;16.212;2023-11-19T11:04:47;97516.66;;;4.91;100.00
15674;BME280;7937;48.090;16.212;2023-11-19T11:07:50;97515.00;;;4.97;100.00
15674;BME280;7937;48.090;16.212;2023-11-19T11:10:55;97513.97;;;5.04;100.00
15674;BME280;7937;48.090;16.212;2023-11-19T11:14:20;97503.34;;;5.11;100.00
15674;BME280;7937;48.090;16.212;2023-11-19T11:17:25;97504.97;;;5.18;100.00
15674;BME280;7937;48.090;16.212;2023-11-19T11:20:33;97504.91;;;5.25;100.00
15674;BME280;7937;48.090;16.212;2023-11-19T11:37:35;97470.16;;;5.28;100.00
15674;BME280;7937;48.090;16.212;2023-11-19T11:40:39;97485.78;;;5.30;100.00
15674;BME280;7937;48.090;16.212;2023-11-19T11:43:48;97469.34;;;5.28;100.00
15674;BME280;7937;48.090;16.212;2023-11-19T11:46:54;97466.31;;;5.24;100.00
15674;BME280;7937;48.090;16.212;2023-11-19T11:50:06;97457.81;;;5.22;100.00
15674;BME280;7937;48.090;16.212;2023-11-19T11:53:18;97458.63;;;5.23;100.00
15674;BME280;7937;48.090;16.212;2023-11-19T11:56:21;97453.69;;;5.26;100.00
15674;BME280;7937;48.090;16.212;2023-11-19T11:59:24;97448.59;;;5.31;100.00
15674;BME280;7937;48.090;16.212;2023-11-19T12:02:26;97461.94;;;5.43;100.00
15674;BME280;7937;48.090;16.212;2023-11-19T12:05:29;97469.16;;;5.54;100.00
15674;BME280;7937;48.090;16.212;2023-11-19T12:08:34;97459.84;;;5.52;100.00
15674;BME280;7937;48.090;16.212;2023-11-19T12:15:22;97473.88;;;5.77;100.00
15674;BME280;7937;48.090;16.212;2023-11-19T12:18:31;97475.06;;;5.81;100.00
15674;BME280;7937;48.090;16.212;2023-11-19T12:21:33;97464.69;;;5.80;100.00
15674;BME280;7937;48.090;16.212;2023-11-19T12:24:39;97460.81;;;5.82;100.00
15674;BME280;7937;48.090;16.212;2023-11-19T12:27:51;97467.56;;;5.78;100.00
15674;BME280;7937;48.090;16.212;2023-11-19T12:31:07;97470.25;;;5.72;100.00
15674;BME280;7937;48.090;16.212;2023-11-19T12:34:11;97455.31;;;5.59;100.00
15674;BME280;7937;48.090;16.212;2023-11-19T12:37:15;97450.88;;;5.53;100.00
15674;BME280;7937;48.090;16.212;2023-11-19T12:40:20;97458.84;;;5.46;100.00
15674;BME280;7937;48.090;16.212;2023-11-19T12:43:23;97461.28;;;5.48;100.00
15674;BME280;7937;48.090;16.212;2023-11-19T12:46:25;97467.00;;;5.44;100.00
15674;BME280;7937;48.090;16.212;2023-11-19T12:49:29;97452.56;;;5.47;100.00
15674;BME280;7937;48.090;16.212;2023-11-19T12:52:31;97449.06;;;5.53;100.00
15674;BME280;7937;48.090;16.212;2023-11-19T12:55:34;97457.94;;;5.59;100.00
15674;BME280;7937;48.090;16.212;2023-11-19T12:58:37;97437.88;;;5.76;100.00
15674;BME280;7937;48.090;16.212;2023-11-19T13:01:40;97427.69;;;5.80;100.00
15674;BME280;7937;48.090;16.212;2023-11-19T13:04:44;97446.94;;;6.12;100.00
15674;BME280;7937;48.090;16.212;2023-11-19T13:07:46;97438.28;;;6.41;100.00
15674;BME280;7937;48.090;16.212;2023-11-19T13:13:58;97434.75;;;7.26;100.00
15674;BME280;7937;48.090;16.212;2023-11-19T13:17:02;97438.97;;;7.69;100.00
15674;BME280;7937;48.090;16.212;2023-11-19T13:20:06;97436.56;;;7.91;100.00
15674;BME280;7937;48.090;16.212;2023-11-19T13:23:08;97441.22;;;8.71;100.00
15674;BME280;7937;48.090;16.212;2023-11-19T13:26:11;97425.25;;;8.83;100.00
15674;BME280;7937;48.090;16.212;2023-11-19T13:29:14;97436.97;;;8.98;100.00
15674;BME280;7937;48.090;16.212;2023-11-19T13:32:16;97421.56;;;9.12;100.00
15674;BME280;7937;48.090;16.212;2023-11-19T13:35:18;97433.16;;;9.23;100.00
15674;BME280;7937;48.090;16.212;2023-11-19T13:38:20;97426.63;;;9.30;100.00
15674;BME280;7937;48.090;16.212;2023-11-19T13:41:22;97441.41;;;9.38;100.00
15674;BME280;7937;48.090;16.212;2023-11-19T13:44:25;97422.31;;;9.41;100.00
15674;BME280;7937;48.090;16.212;2023-11-19T13:47:27;97427.09;;;9.56;100.00
15674;BME280;7937;48.090;16.212;2023-11-19T13:50:29;97432.06;;;9.69;100.00
15674;BME280;7937;48.090;16.212;2023-11-19T13:53:35;97433.09;;;9.85;100.00
15674;BME280;7937;48.090;16.212;2023-11-19T13:56:40;97431.44;;;9.62;100.00
15674;BME280;7937;48.090;16.212;2023-11-19T13:59:42;97418.34;;;9.27;100.00
15674;BME280;7937;48.090;16.212;2023-11-19T14:02:46;97427.09;;;9.56;100.00
15674;BME280;7937;48.090;16.212;2023-11-19T14:05:49;97430.38;;;9.63;100.00
15674;BME280;7937;48.090;16.212;2023-11-19T14:08:54;97426.59;;;9.59;100.00
15674;BME280;7937;48.090;16.212;2023-11-19T14:11:56;97421.09;;;9.49;100.00
15674;BME280;7937;48.090;16.212;2023-11-19T14:14:59;97426.13;;;9.62;100.00
15674;BME280;7937;48.090;16.212;2023-11-19T14:18:02;97424.72;;;9.60;100.00
15674;BME280;7937;48.090;16.212;2023-11-19T14:21:04;97412.25;;;9.43;100.00
15674;BME280;7937;48.090;16.212;2023-11-19T14:24:07;97432.25;;;9.46;100.00
15674;BME280;7937;48.090;16.212;2023-11-19T14:27:10;97424.91;;;9.36;100.00
15674;BME280;7937;48.090;16.212;2023-11-19T14:30:13;97411.41;;;9.26;100.00
15674;BME280;7937;48.090;16.212;2023-11-19T14:33:15;97444.13;;;9.26;100.00
15674;BME280;7937;48.090;16.212;2023-11-19T14:36:17;97430.97;;;9.20;100.00
15674;BME280;7937;48.090;16.212;2023-11-19T14:39:19;97445.56;;;9.17;100.00
15674;BME280;7937;48.090;16.212;2023-11-19T14:42:21;97436.72;;;9.28;100.00
15674;BME280;7937;48.090;16.212;2023-11-19T14:45:24;97457.56;;;9.20;100.00
15674;BME280;7937;48.090;16.212;2023-11-19T14:48:27;97436.63;;;9.23;100.00
15674;BME280;7937;48.090;16.212;2023-11-19T14:51:30;97429.72;;;9.22;100.00
15674;BME280;7937;48.090;16.212;2023-11-19T14:54:33;97430.59;;;9.28;100.00
15674;BME280;7937;48.090;16.212;2023-11-19T14:57:36;97424.22;;;9.29;100.00
15674;BME280;7937;48.090;16.212;2023-11-19T15:00:41;97431.22;;;9.18;100.00
15674;BME280;7937;48.090;16.212;2023-11-19T15:03:44;97446.78;;;9.26;100.00
15674;BME280;7937;48.090;16.212;2023-11-19T15:06:49;97407.38;;;9.07;100.00
15674;BME280;7937;48.090;16.212;2023-11-19T15:09:51;97455.06;;;9.30;100.00
15674;BME280;7937;48.090;16.212;2023-11-19T15:12:54;97461.91;;;9.26;100.00
15674;BME280;7937;48.090;16.212;2023-11-19T15:15:56;97453.22;;;9.30;100.00
15674;BME280;7937;48.090;16.212;2023-11-19T15:18:59;97449.28;;;9.33;100.00
15674;BME280;7937;48.090;16.212;2023-11-19T15:22:01;97428.59;;;9.35;100.00
15674;BME280;7937;48.090;16.212;2023-11-19T15:25:06;97437.63;;;9.68;100.00
15674;BME280;7937;48.090;16.212;2023-11-19T15:28:12;97439.97;;;9.81;100.00
15674;BME280;7937;48.090;16.212;2023-11-19T15:31:15;97438.84;;;9.77;100.00
15674;BME280;7937;48.090;16.212;2023-11-19T15:34:18;97437.00;;;9.61;100.00
15674;BME280;7937;48.090;16.212;2023-11-19T15:37:21;97439.56;;;9.39;100.00
15674;BME280;7937;48.090;16.212;2023-11-19T15:40:23;97428.31;;;9.20;100.00
15674;BME280;7937;48.090;16.212;2023-11-19T15:43:25;97415.81;;;9.03;100.00
15674;BME280;7937;48.090;16.212;2023-11-19T15:46:27;97420.25;;;8.86;100.00
15674;BME280;7937;48.090;16.212;2023-11-19T15:49:29;97423.91;;;8.68;100.00
15674;BME280;7937;48.090;16.212;2023-11-19T15:52:32;97387.38;;;8.35;100.00
15674;BME280;7937;48.090;16.212;2023-11-19T15:55:34;97425.59;;;8.34;100.00
15674;BME280;7937;48.090;16.212;2023-11-19T15:58:36;97432.72;;;8.22;100.00
15674;BME280;7937;48.090;16.212;2023-11-19T16:01:41;97416.28;;;8.08;100.00
15674;BME280;7937;48.090;16.212;2023-11-19T16:04:43;97423.19;;;7.97;100.00
15674;BME280;7937;48.090;16.212;2023-11-19T16:07:49;97417.06;;;7.85;100.00
15674;BME280;7937;48.090;16.212;2023-11-19T16:10:52;97420.19;;;7.82;100.00
15674;BME280;7937;48.090;16.212;2023-11-19T16:13:54;97420.06;;;7.65;100.00
15674;BME280;7937;48.090;16.212;2023-11-19T16:16:57;97433.28;;;7.54;100.00
15674;BME280;7937;48.090;16.212;2023-11-19T16:19:59;97427.06;;;7.48;100.00
15674;BME280;7937;48.090;16.212;2023-11-19T16:23:02;97412.88;;;7.42;100.00
15674;BME280;7937;48.090;16.212;2023-11-19T16:26:06;97412.06;;;7.30;100.00
15674;BME280;7937;48.090;16.212;2023-11-19T16:29:09;97402.78;;;7.09;100.00
15674;BME280;7937;48.090;16.212;2023-11-19T16:32:12;97396.22;;;7.00;100.00